sensor_id;sensor_type;location;lat;lon;timestamp;P1;durP1;ratioP1;P2;durP2;ratioP2
65368;SDS011;51970;53.484;49.488;2023-01-30T00:03:01;5.68;;;2.58;;
65368;SDS011;51970;53.484;49.488;2023-01-30T00:07:55;7.25;;;4.25;;
65368;SDS011;51970;53.484;49.488;2023-01-30T00:12:47;8.00;;;4.20;;
65368;SDS011;51970;53.484;49.488;2023-01-30T00:17:39;12.32;;;3.78;;
65368;SDS011;51970;53.484;49.488;2023-01-30T00:22:31;19.90;;;5.97;;
65368;SDS011;51970;53.484;49.488;2023-01-30T00:24:57;8.90;;;3.72;;
65368;SDS011;51970;53.484;49.488;2023-01-30T00:29:49;10.23;;;6.53;;
65368;SDS011;51970;53.484;49.488;2023-01-30T00:34:41;4.65;;;2.88;;
65368;SDS011;51970;53.484;49.488;2023-01-30T00:39:33;4.68;;;2.05;;
65368;SDS011;51970;53.484;49.488;2023-01-30T00:42:03;7.20;;;3.65;;
65368;SDS011;51970;53.484;49.488;2023-01-30T00:44:47;12.05;;;6.70;;
65368;SDS011;51970;53.484;49.488;2023-01-30T00:47:31;9.27;;;4.25;;
65368;SDS011;51970;53.484;49.488;2023-01-30T00:49:57;9.60;;;5.80;;
65368;SDS011;51970;53.484;49.488;2023-01-30T00:54:49;6.53;;;4.20;;
65368;SDS011;51970;53.484;49.488;2023-01-30T00:57:16;6.50;;;3.83;;
65368;SDS011;51970;53.484;49.488;2023-01-30T00:59:46;11.95;;;6.53;;
65368;SDS011;51970;53.484;49.488;2023-01-30T01:02:12;8.23;;;4.45;;
65368;SDS011;51970;53.484;49.488;2023-01-30T01:04:38;12.05;;;5.45;;
65368;SDS011;51970;53.484;49.488;2023-01-30T01:07:10;9.15;;;3.92;;
65368;SDS011;51970;53.484;49.488;2023-01-30T01:09:37;9.77;;;5.03;;
65368;SDS011;51970;53.484;49.488;2023-01-30T01:12:04;9.10;;;4.38;;
65368;SDS011;51970;53.484;49.488;2023-01-30T01:14:31;11.98;;;5.63;;
65368;SDS011;51970;53.484;49.488;2023-01-30T01:16:57;16.48;;;4.32;;
65368;SDS011;51970;53.484;49.488;2023-01-30T01:19:24;14.52;;;5.88;;
65368;SDS011;51970;53.484;49.488;2023-01-30T01:21:50;11.77;;;6.22;;
65368;SDS011;51970;53.484;49.488;2023-01-30T01:24:16;9.27;;;4.57;;
65368;SDS011;51970;53.484;49.488;2023-01-30T01:26:43;10.75;;;5.22;;
65368;SDS011;51970;53.484;49.488;2023-01-30T01:29:10;9.25;;;4.00;;
65368;SDS011;51970;53.484;49.488;2023-01-30T01:31:41;12.10;;;5.45;;
65368;SDS011;51970;53.484;49.488;2023-01-30T01:34:11;16.30;;;6.28;;
65368;SDS011;51970;53.484;49.488;2023-01-30T01:36:37;10.52;;;4.72;;
65368;SDS011;51970;53.484;49.488;2023-01-30T01:39:03;13.88;;;6.95;;
65368;SDS011;51970;53.484;49.488;2023-01-30T01:41:29;15.95;;;6.50;;
65368;SDS011;51970;53.484;49.488;2023-01-30T01:44:03;13.93;;;6.97;;
65368;SDS011;51970;53.484;49.488;2023-01-30T01:49:20;15.38;;;6.15;;
65368;SDS011;51970;53.484;49.488;2023-01-30T01:51:52;12.23;;;6.03;;
65368;SDS011;51970;53.484;49.488;2023-01-30T01:54:33;11.73;;;5.30;;
65368;SDS011;51970;53.484;49.488;2023-01-30T01:57:01;12.98;;;5.63;;
65368;SDS011;51970;53.484;49.488;2023-01-30T01:59:34;11.38;;;6.45;;
65368;SDS011;51970;53.484;49.488;2023-01-30T02:02:06;13.77;;;5.40;;
65368;SDS011;51970;53.484;49.488;2023-01-30T02:04:36;14.02;;;7.07;;
65368;SDS011;51970;53.484;49.488;2023-01-30T02:07:25;20.23;;;6.07;;
65368;SDS011;51970;53.484;49.488;2023-01-30T02:09:56;15.35;;;5.90;;
65368;SDS011;51970;53.484;49.488;2023-01-30T02:12:22;19.02;;;6.97;;
65368;SDS011;51970;53.484;49.488;2023-01-30T02:14:50;16.40;;;6.75;;
65368;SDS011;51970;53.484;49.488;2023-01-30T02:17:18;17.75;;;6.57;;
65368;SDS011;51970;53.484;49.488;2023-01-30T02:36:33;19.40;;;7.95;;
65368;SDS011;51970;53.484;49.488;2023-01-30T02:44:24;14.27;;;7.07;;
65368;SDS011;51970;53.484;49.488;2023-01-30T02:47:03;14.13;;;5.35;;
65368;SDS011;51970;53.484;49.488;2023-01-30T02:49:39;16.42;;;5.47;;
65368;SDS011;51970;53.484;49.488;2023-01-30T02:52:09;14.82;;;5.50;;
65368;SDS011;51970;53.484;49.488;2023-01-30T02:54:37;11.00;;;5.30;;
65368;SDS011;51970;53.484;49.488;2023-01-30T02:57:14;9.90;;;5.05;;
65368;SDS011;51970;53.484;49.488;2023-01-30T02:59:44;11.52;;;5.18;;
65368;SDS011;51970;53.484;49.488;2023-01-30T03:05:09;11.15;;;3.28;;
65368;SDS011;51970;53.484;49.488;2023-01-30T03:07:49;8.18;;;4.20;;
65368;SDS011;51970;53.484;49.488;2023-01-30T03:10:22;11.65;;;4.68;;
65368;SDS011;51970;53.484;49.488;2023-01-30T03:15:59;13.07;;;5.63;;
65368;SDS011;51970;53.484;49.488;2023-01-30T03:18:33;6.40;;;3.35;;
65368;SDS011;51970;53.484;49.488;2023-01-30T03:21:03;15.45;;;6.28;;
65368;SDS011;51970;53.484;49.488;2023-01-30T03:23:30;13.07;;;4.30;;
65368;SDS011;51970;53.484;49.488;2023-01-30T03:25:56;18.98;;;5.75;;
65368;SDS011;51970;53.484;49.488;2023-01-30T03:28:26;17.15;;;7.78;;
65368;SDS011;51970;53.484;49.488;2023-01-30T03:30:53;8.30;;;4.22;;
65368;SDS011;51970;53.484;49.488;2023-01-30T03:33:19;9.85;;;5.18;;
65368;SDS011;51970;53.484;49.488;2023-01-30T03:35:45;12.43;;;5.57;;
65368;SDS011;51970;53.484;49.488;2023-01-30T03:38:11;12.25;;;5.43;;
65368;SDS011;51970;53.484;49.488;2023-01-30T03:40:38;12.35;;;5.00;;
65368;SDS011;51970;53.484;49.488;2023-01-30T03:43:04;16.35;;;7.32;;
65368;SDS011;51970;53.484;49.488;2023-01-30T03:45:30;14.93;;;5.97;;
65368;SDS011;51970;53.484;49.488;2023-01-30T03:47:56;12.95;;;6.70;;
65368;SDS011;51970;53.484;49.488;2023-01-30T03:50:22;13.52;;;5.53;;
65368;SDS011;51970;53.484;49.488;2023-01-30T03:52:48;10.20;;;6.72;;
65368;SDS011;51970;53.484;49.488;2023-01-30T03:55:15;8.52;;;4.53;;
65368;SDS011;51970;53.484;49.488;2023-01-30T03:57:41;20.20;;;6.50;;
65368;SDS011;51970;53.484;49.488;2023-01-30T04:00:08;8.68;;;4.10;;
65368;SDS011;51970;53.484;49.488;2023-01-30T04:02:34;14.18;;;5.30;;
65368;SDS011;51970;53.484;49.488;2023-01-30T04:05:03;11.95;;;4.72;;
65368;SDS011;51970;53.484;49.488;2023-01-30T04:07:30;10.52;;;4.32;;
65368;SDS011;51970;53.484;49.488;2023-01-30T04:09:56;7.25;;;3.50;;
65368;SDS011;51970;53.484;49.488;2023-01-30T04:12:22;10.05;;;5.50;;
65368;SDS011;51970;53.484;49.488;2023-01-30T04:14:48;9.18;;;3.58;;
65368;SDS011;51970;53.484;49.488;2023-01-30T04:17:14;8.60;;;4.53;;
65368;SDS011;51970;53.484;49.488;2023-01-30T04:19:40;9.80;;;4.35;;
65368;SDS011;51970;53.484;49.488;2023-01-30T04:22:07;7.50;;;3.75;;
65368;SDS011;51970;53.484;49.488;2023-01-30T04:24:33;10.18;;;4.90;;
65368;SDS011;51970;53.484;49.488;2023-01-30T04:26:59;14.32;;;6.28;;
65368;SDS011;51970;53.484;49.488;2023-01-30T04:29:25;9.32;;;3.63;;
65368;SDS011;51970;53.484;49.488;2023-01-30T04:31:51;9.07;;;4.88;;
65368;SDS011;51970;53.484;49.488;2023-01-30T04:34:17;14.23;;;5.70;;
65368;SDS011;51970;53.484;49.488;2023-01-30T04:36:47;14.43;;;7.00;;
65368;SDS011;51970;53.484;49.488;2023-01-30T04:39:13;13.63;;;6.25;;
65368;SDS011;51970;53.484;49.488;2023-01-30T04:41:39;11.60;;;4.70;;
65368;SDS011;51970;53.484;49.488;2023-01-30T04:44:05;23.15;;;8.32;;
65368;SDS011;51970;53.484;49.488;2023-01-30T04:46:31;14.40;;;7.05;;
65368;SDS011;51970;53.484;49.488;2023-01-30T04:48:57;18.92;;;7.38;;
65368;SDS011;51970;53.484;49.488;2023-01-30T04:51:27;15.82;;;8.60;;
65368;SDS011;51970;53.484;49.488;2023-01-30T04:53:53;27.85;;;7.55;;
65368;SDS011;51970;53.484;49.488;2023-01-30T04:56:19;15.35;;;6.47;;
65368;SDS011;51970;53.484;49.488;2023-01-30T04:58:46;19.90;;;8.07;;
65368;SDS011;51970;53.484;49.488;2023-01-30T05:01:23;18.75;;;8.30;;
65368;SDS011;51970;53.484;49.488;2023-01-30T05:03:54;18.55;;;8.48;;
65368;SDS011;51970;53.484;49.488;2023-01-30T05:06:21;16.20;;;7.82;;
65368;SDS011;51970;53.484;49.488;2023-01-30T05:08:48;16.52;;;6.88;;
65368;SDS011;51970;53.484;49.488;2023-01-30T05:11:17;18.50;;;9.52;;
65368;SDS011;51970;53.484;49.488;2023-01-30T05:13:46;18.50;;;8.15;;
65368;SDS011;51970;53.484;49.488;2023-01-30T05:16:15;23.25;;;10.60;;
65368;SDS011;51970;53.484;49.488;2023-01-30T05:18:42;18.20;;;8.07;;
65368;SDS011;51970;53.484;49.488;2023-01-30T05:21:10;18.73;;;9.10;;
65368;SDS011;51970;53.484;49.488;2023-01-30T05:23:38;18.25;;;8.90;;
65368;SDS011;51970;53.484;49.488;2023-01-30T05:26:06;18.75;;;8.80;;
65368;SDS011;51970;53.484;49.488;2023-01-30T05:28:34;21.83;;;9.90;;
65368;SDS011;51970;53.484;49.488;2023-01-30T05:31:05;20.48;;;10.43;;
65368;SDS011;51970;53.484;49.488;2023-01-30T05:33:36;19.48;;;10.57;;
65368;SDS011;51970;53.484;49.488;2023-01-30T05:36:03;22.52;;;11.07;;
65368;SDS011;51970;53.484;49.488;2023-01-30T05:38:33;21.15;;;11.18;;
65368;SDS011;51970;53.484;49.488;2023-01-30T05:41:02;26.63;;;12.80;;
65368;SDS011;51970;53.484;49.488;2023-01-30T05:43:31;25.75;;;11.20;;
65368;SDS011;51970;53.484;49.488;2023-01-30T05:46:00;32.42;;;11.15;;
65368;SDS011;51970;53.484;49.488;2023-01-30T05:48:29;20.70;;;10.55;;
65368;SDS011;51970;53.484;49.488;2023-01-30T05:50:56;22.95;;;9.60;;
65368;SDS011;51970;53.484;49.488;2023-01-30T05:53:29;21.67;;;11.40;;
65368;SDS011;51970;53.484;49.488;2023-01-30T05:56:02;22.20;;;10.07;;
65368;SDS011;51970;53.484;49.488;2023-01-30T05:58:30;20.35;;;10.18;;
65368;SDS011;51970;53.484;49.488;2023-01-30T06:01:01;22.40;;;9.73;;
65368;SDS011;51970;53.484;49.488;2023-01-30T06:03:29;22.63;;;10.77;;
65368;SDS011;51970;53.484;49.488;2023-01-30T06:05:55;15.60;;;8.73;;
65368;SDS011;51970;53.484;49.488;2023-01-30T06:08:22;25.38;;;10.75;;
65368;SDS011;51970;53.484;49.488;2023-01-30T06:10:50;18.73;;;8.63;;
65368;SDS011;51970;53.484;49.488;2023-01-30T06:13:16;23.92;;;10.77;;
65368;SDS011;51970;53.484;49.488;2023-01-30T06:15:49;18.98;;;9.73;;
65368;SDS011;51970;53.484;49.488;2023-01-30T06:18:36;20.63;;;9.57;;
65368;SDS011;51970;53.484;49.488;2023-01-30T06:21:04;19.92;;;10.45;;
65368;SDS011;51970;53.484;49.488;2023-01-30T06:23:31;22.55;;;10.95;;
65368;SDS011;51970;53.484;49.488;2023-01-30T06:26:00;21.40;;;8.50;;
65368;SDS011;51970;53.484;49.488;2023-01-30T06:28:27;22.10;;;11.57;;
65368;SDS011;51970;53.484;49.488;2023-01-30T06:30:53;21.58;;;10.90;;
65368;SDS011;51970;53.484;49.488;2023-01-30T06:33:19;25.92;;;10.60;;
65368;SDS011;51970;53.484;49.488;2023-01-30T06:35:48;24.55;;;11.98;;
65368;SDS011;51970;53.484;49.488;2023-01-30T06:38:15;28.77;;;11.93;;
65368;SDS011;51970;53.484;49.488;2023-01-30T06:40:45;27.42;;;12.98;;
65368;SDS011;51970;53.484;49.488;2023-01-30T06:43:13;25.77;;;10.63;;
65368;SDS011;51970;53.484;49.488;2023-01-30T06:45:40;18.00;;;7.93;;
65368;SDS011;51970;53.484;49.488;2023-01-30T06:48:06;24.65;;;11.07;;
65368;SDS011;51970;53.484;49.488;2023-01-30T06:50:33;23.90;;;10.93;;
65368;SDS011;51970;53.484;49.488;2023-01-30T06:53:04;24.33;;;12.30;;
65368;SDS011;51970;53.484;49.488;2023-01-30T06:55:32;29.30;;;11.88;;
65368;SDS011;51970;53.484;49.488;2023-01-30T06:58:20;24.73;;;13.60;;
65368;SDS011;51970;53.484;49.488;2023-01-30T07:00:46;32.03;;;15.30;;
65368;SDS011;51970;53.484;49.488;2023-01-30T07:03:14;28.08;;;10.18;;
65368;SDS011;51970;53.484;49.488;2023-01-30T07:05:42;29.38;;;13.70;;
65368;SDS011;51970;53.484;49.488;2023-01-30T07:08:11;32.97;;;14.63;;
65368;SDS011;51970;53.484;49.488;2023-01-30T07:10:38;27.35;;;11.13;;
65368;SDS011;51970;53.484;49.488;2023-01-30T07:13:06;27.38;;;13.02;;
65368;SDS011;51970;53.484;49.488;2023-01-30T07:15:33;25.85;;;11.93;;
65368;SDS011;51970;53.484;49.488;2023-01-30T07:17:59;32.17;;;13.70;;
65368;SDS011;51970;53.484;49.488;2023-01-30T07:20:27;33.25;;;14.50;;
65368;SDS011;51970;53.484;49.488;2023-01-30T07:22:57;31.45;;;13.00;;
65368;SDS011;51970;53.484;49.488;2023-01-30T07:25:24;33.85;;;16.15;;
65368;SDS011;51970;53.484;49.488;2023-01-30T07:27:52;32.42;;;14.55;;
65368;SDS011;51970;53.484;49.488;2023-01-30T07:30:19;33.97;;;11.57;;
65368;SDS011;51970;53.484;49.488;2023-01-30T07:32:49;22.85;;;11.13;;
65368;SDS011;51970;53.484;49.488;2023-01-30T07:35:21;31.63;;;14.50;;
65368;SDS011;51970;53.484;49.488;2023-01-30T07:37:48;25.08;;;11.43;;
65368;SDS011;51970;53.484;49.488;2023-01-30T07:40:17;26.70;;;13.63;;
65368;SDS011;51970;53.484;49.488;2023-01-30T07:43:01;24.80;;;10.25;;
65368;SDS011;51970;53.484;49.488;2023-01-30T07:48:08;37.25;;;14.13;;
65368;SDS011;51970;53.484;49.488;2023-01-30T07:50:36;28.33;;;13.63;;
65368;SDS011;51970;53.484;49.488;2023-01-30T07:53:03;30.27;;;14.35;;
65368;SDS011;51970;53.484;49.488;2023-01-30T07:55:33;19.90;;;10.98;;
65368;SDS011;51970;53.484;49.488;2023-01-30T07:58:00;27.02;;;13.85;;
65368;SDS011;51970;53.484;49.488;2023-01-30T08:00:26;32.03;;;13.00;;
65368;SDS011;51970;53.484;49.488;2023-01-30T08:02:53;36.65;;;15.55;;
65368;SDS011;51970;53.484;49.488;2023-01-30T08:05:19;35.33;;;17.25;;
65368;SDS011;51970;53.484;49.488;2023-01-30T08:07:45;27.27;;;13.80;;
65368;SDS011;51970;53.484;49.488;2023-01-30T08:10:12;33.40;;;14.90;;
65368;SDS011;51970;53.484;49.488;2023-01-30T08:12:39;25.73;;;12.15;;
65368;SDS011;51970;53.484;49.488;2023-01-30T08:15:06;40.05;;;16.55;;
65368;SDS011;51970;53.484;49.488;2023-01-30T08:17:33;34.00;;;14.05;;
65368;SDS011;51970;53.484;49.488;2023-01-30T08:20:03;34.90;;;16.00;;
65368;SDS011;51970;53.484;49.488;2023-01-30T08:22:29;31.70;;;14.65;;
65368;SDS011;51970;53.484;49.488;2023-01-30T08:24:56;25.05;;;11.38;;
65368;SDS011;51970;53.484;49.488;2023-01-30T08:27:22;34.90;;;15.35;;
65368;SDS011;51970;53.484;49.488;2023-01-30T08:29:48;35.20;;;14.57;;
65368;SDS011;51970;53.484;49.488;2023-01-30T08:32:14;40.10;;;16.67;;
65368;SDS011;51970;53.484;49.488;2023-01-30T08:34:40;40.85;;;19.50;;
65368;SDS011;51970;53.484;49.488;2023-01-30T08:37:10;36.50;;;14.05;;
65368;SDS011;51970;53.484;49.488;2023-01-30T08:39:36;30.63;;;12.85;;
65368;SDS011;51970;53.484;49.488;2023-01-30T08:42:03;31.63;;;13.77;;
65368;SDS011;51970;53.484;49.488;2023-01-30T08:44:29;33.47;;;14.32;;
65368;SDS011;51970;53.484;49.488;2023-01-30T08:46:55;35.65;;;14.63;;
65368;SDS011;51970;53.484;49.488;2023-01-30T08:49:21;35.83;;;14.80;;
65368;SDS011;51970;53.484;49.488;2023-01-30T08:51:48;36.28;;;15.13;;
65368;SDS011;51970;53.484;49.488;2023-01-30T08:54:15;36.85;;;16.08;;
65368;SDS011;51970;53.484;49.488;2023-01-30T08:56:41;35.97;;;17.75;;
65368;SDS011;51970;53.484;49.488;2023-01-30T08:59:08;35.60;;;17.52;;
65368;SDS011;51970;53.484;49.488;2023-01-30T09:01:37;41.30;;;16.88;;
65368;SDS011;51970;53.484;49.488;2023-01-30T09:04:04;42.03;;;16.80;;
65368;SDS011;51970;53.484;49.488;2023-01-30T09:06:31;37.45;;;15.25;;
65368;SDS011;51970;53.484;49.488;2023-01-30T09:08:58;40.60;;;19.67;;
65368;SDS011;51970;53.484;49.488;2023-01-30T09:11:26;39.25;;;15.00;;
65368;SDS011;51970;53.484;49.488;2023-01-30T09:13:53;32.75;;;12.38;;
65368;SDS011;51970;53.484;49.488;2023-01-30T09:16:19;39.30;;;16.33;;
65368;SDS011;51970;53.484;49.488;2023-01-30T09:18:46;37.30;;;16.80;;
65368;SDS011;51970;53.484;49.488;2023-01-30T09:21:12;44.60;;;17.55;;
65368;SDS011;51970;53.484;49.488;2023-01-30T09:23:39;33.33;;;15.13;;
65368;SDS011;51970;53.484;49.488;2023-01-30T09:26:06;34.75;;;16.55;;
65368;SDS011;51970;53.484;49.488;2023-01-30T09:28:32;45.10;;;17.08;;
65368;SDS011;51970;53.484;49.488;2023-01-30T09:30:59;36.65;;;16.75;;
65368;SDS011;51970;53.484;49.488;2023-01-30T09:33:27;40.47;;;16.80;;
65368;SDS011;51970;53.484;49.488;2023-01-30T09:35:54;32.40;;;15.13;;
65368;SDS011;51970;53.484;49.488;2023-01-30T09:38:21;36.45;;;16.02;;
65368;SDS011;51970;53.484;49.488;2023-01-30T09:40:51;38.60;;;16.73;;
65368;SDS011;51970;53.484;49.488;2023-01-30T09:51:58;29.83;;;13.07;;
65368;SDS011;51970;53.484;49.488;2023-01-30T09:54:48;29.35;;;14.95;;
65368;SDS011;51970;53.484;49.488;2023-01-30T09:57:20;38.38;;;17.65;;
65368;SDS011;51970;53.484;49.488;2023-01-30T10:05:18;33.83;;;14.07;;
65368;SDS011;51970;53.484;49.488;2023-01-30T10:07:47;30.30;;;14.68;;
65368;SDS011;51970;53.484;49.488;2023-01-30T10:10:31;41.65;;;17.70;;
65368;SDS011;51970;53.484;49.488;2023-01-30T10:13:10;36.33;;;16.77;;
65368;SDS011;51970;53.484;49.488;2023-01-30T10:21:56;37.75;;;16.67;;
65368;SDS011;51970;53.484;49.488;2023-01-30T10:27:54;31.33;;;14.02;;
65368;SDS011;51970;53.484;49.488;2023-01-30T10:30:26;36.53;;;17.00;;
65368;SDS011;51970;53.484;49.488;2023-01-30T10:32:56;29.15;;;13.18;;
65368;SDS011;51970;53.484;49.488;2023-01-30T10:35:31;41.83;;;17.35;;
65368;SDS011;51970;53.484;49.488;2023-01-30T10:38:06;38.95;;;16.70;;
65368;SDS011;51970;53.484;49.488;2023-01-30T10:41:00;32.15;;;13.05;;
65368;SDS011;51970;53.484;49.488;2023-01-30T10:43:39;41.50;;;18.65;;
65368;SDS011;51970;53.484;49.488;2023-01-30T10:57:22;34.75;;;18.02;;
65368;SDS011;51970;53.484;49.488;2023-01-30T11:00:28;22.15;;;10.77;;
65368;SDS011;51970;53.484;49.488;2023-01-30T11:05:48;38.80;;;15.65;;
65368;SDS011;51970;53.484;49.488;2023-01-30T11:08:31;30.55;;;16.65;;
65368;SDS011;51970;53.484;49.488;2023-01-30T11:11:00;17.08;;;8.95;;
65368;SDS011;51970;53.484;49.488;2023-01-30T11:13:44;40.13;;;16.27;;
65368;SDS011;51970;53.484;49.488;2023-01-30T11:16:13;41.67;;;17.75;;
65368;SDS011;51970;53.484;49.488;2023-01-30T11:18:44;32.17;;;13.98;;
65368;SDS011;51970;53.484;49.488;2023-01-30T11:21:23;31.58;;;14.77;;
65368;SDS011;51970;53.484;49.488;2023-01-30T11:23:52;29.58;;;13.70;;
65368;SDS011;51970;53.484;49.488;2023-01-30T11:26:24;43.22;;;17.98;;
65368;SDS011;51970;53.484;49.488;2023-01-30T11:28:56;40.42;;;14.70;;
65368;SDS011;51970;53.484;49.488;2023-01-30T11:31:25;31.08;;;15.13;;
65368;SDS011;51970;53.484;49.488;2023-01-30T11:34:04;34.85;;;13.77;;
65368;SDS011;51970;53.484;49.488;2023-01-30T11:36:37;38.70;;;17.13;;
65368;SDS011;51970;53.484;49.488;2023-01-30T11:39:17;39.20;;;16.50;;
65368;SDS011;51970;53.484;49.488;2023-01-30T11:44:39;32.78;;;14.63;;
65368;SDS011;51970;53.484;49.488;2023-01-30T11:47:19;34.47;;;15.32;;
65368;SDS011;51970;53.484;49.488;2023-01-30T11:49:52;35.55;;;15.05;;
65368;SDS011;51970;53.484;49.488;2023-01-30T11:52:25;34.78;;;15.23;;
65368;SDS011;51970;53.484;49.488;2023-01-30T11:54:58;32.20;;;16.60;;
65368;SDS011;51970;53.484;49.488;2023-01-30T11:57:45;29.45;;;12.68;;
65368;SDS011;51970;53.484;49.488;2023-01-30T12:00:21;38.50;;;15.40;;
65368;SDS011;51970;53.484;49.488;2023-01-30T12:02:49;34.70;;;14.07;;
65368;SDS011;51970;53.484;49.488;2023-01-30T12:05:23;38.63;;;16.65;;
65368;SDS011;51970;53.484;49.488;2023-01-30T12:07:53;21.75;;;11.50;;
65368;SDS011;51970;53.484;49.488;2023-01-30T12:10:40;28.02;;;14.07;;
65368;SDS011;51970;53.484;49.488;2023-01-30T12:13:19;32.40;;;12.25;;
65368;SDS011;51970;53.484;49.488;2023-01-30T12:18:58;30.55;;;14.80;;
65368;SDS011;51970;53.484;49.488;2023-01-30T12:21:43;28.75;;;15.55;;
65368;SDS011;51970;53.484;49.488;2023-01-30T12:27:03;22.05;;;9.05;;
65368;SDS011;51970;53.484;49.488;2023-01-30T12:29:50;38.28;;;15.30;;
65368;SDS011;51970;53.484;49.488;2023-01-30T12:32:26;32.65;;;14.02;;
65368;SDS011;51970;53.484;49.488;2023-01-30T12:34:54;32.80;;;14.18;;
65368;SDS011;51970;53.484;49.488;2023-01-30T12:37:30;29.35;;;15.10;;
65368;SDS011;51970;53.484;49.488;2023-01-30T13:10:42;32.35;;;15.73;;
65368;SDS011;51970;53.484;49.488;2023-01-30T13:13:29;25.95;;;11.60;;
65368;SDS011;51970;53.484;49.488;2023-01-30T13:16:11;24.50;;;11.32;;
65368;SDS011;51970;53.484;49.488;2023-01-30T13:18:51;36.30;;;14.30;;
65368;SDS011;51970;53.484;49.488;2023-01-30T13:26:48;23.55;;;11.65;;
65368;SDS011;51970;53.484;49.488;2023-01-30T13:31:51;27.33;;;12.70;;
65368;SDS011;51970;53.484;49.488;2023-01-30T13:34:40;29.52;;;13.18;;
65368;SDS011;51970;53.484;49.488;2023-01-30T13:37:16;28.45;;;13.25;;
65368;SDS011;51970;53.484;49.488;2023-01-30T13:45:14;33.80;;;13.88;;
65368;SDS011;51970;53.484;49.488;2023-01-30T13:47:47;31.05;;;12.10;;
65368;SDS011;51970;53.484;49.488;2023-01-30T13:53:17;21.88;;;8.80;;
65368;SDS011;51970;53.484;49.488;2023-01-30T14:00:55;30.90;;;13.85;;
65368;SDS011;51970;53.484;49.488;2023-01-30T14:03:22;33.40;;;14.88;;
65368;SDS011;51970;53.484;49.488;2023-01-30T14:08:20;29.10;;;13.68;;
65368;SDS011;51970;53.484;49.488;2023-01-30T14:10:50;32.28;;;14.88;;
65368;SDS011;51970;53.484;49.488;2023-01-30T14:13:16;28.13;;;11.73;;
65368;SDS011;51970;53.484;49.488;2023-01-30T14:15:53;29.77;;;10.70;;
65368;SDS011;51970;53.484;49.488;2023-01-30T14:18:21;24.35;;;11.95;;
65368;SDS011;51970;53.484;49.488;2023-01-30T14:20:51;28.45;;;12.95;;
65368;SDS011;51970;53.484;49.488;2023-01-30T14:23:36;23.67;;;12.15;;
65368;SDS011;51970;53.484;49.488;2023-01-30T14:26:02;31.90;;;12.88;;
65368;SDS011;51970;53.484;49.488;2023-01-30T14:30:55;26.88;;;12.38;;
65368;SDS011;51970;53.484;49.488;2023-01-30T14:38:37;32.38;;;14.82;;
65368;SDS011;51970;53.484;49.488;2023-01-30T14:59:09;45.50;;;16.27;;
65368;SDS011;51970;53.484;49.488;2023-01-30T15:04:48;35.50;;;15.63;;
65368;SDS011;51970;53.484;49.488;2023-01-30T15:16:26;22.95;;;11.43;;
65368;SDS011;51970;53.484;49.488;2023-01-30T15:25:28;37.65;;;16.67;;
65368;SDS011;51970;53.484;49.488;2023-01-30T15:33:45;35.05;;;16.05;;
65368;SDS011;51970;53.484;49.488;2023-01-30T15:36:17;38.30;;;16.83;;
65368;SDS011;51970;53.484;49.488;2023-01-30T15:38:59;33.20;;;15.48;;
65368;SDS011;51970;53.484;49.488;2023-01-30T15:41:36;31.15;;;14.65;;
65368;SDS011;51970;53.484;49.488;2023-01-30T15:46:47;42.25;;;17.67;;
65368;SDS011;51970;53.484;49.488;2023-01-30T15:52:20;40.80;;;17.58;;
65368;SDS011;51970;53.484;49.488;2023-01-30T15:54:50;45.58;;;19.55;;
65368;SDS011;51970;53.484;49.488;2023-01-30T15:57:25;33.10;;;16.90;;
65368;SDS011;51970;53.484;49.488;2023-01-30T15:59:57;36.22;;;16.33;;
65368;SDS011;51970;53.484;49.488;2023-01-30T16:02:27;37.17;;;16.55;;
65368;SDS011;51970;53.484;49.488;2023-01-30T16:05:03;54.50;;;19.85;;
65368;SDS011;51970;53.484;49.488;2023-01-30T16:07:47;39.55;;;18.05;;
65368;SDS011;51970;53.484;49.488;2023-01-30T16:10:16;36.53;;;16.52;;
65368;SDS011;51970;53.484;49.488;2023-01-30T16:12:47;43.00;;;19.05;;
65368;SDS011;51970;53.484;49.488;2023-01-30T16:17:59;30.55;;;14.38;;
65368;SDS011;51970;53.484;49.488;2023-01-30T16:20:28;29.92;;;14.85;;
65368;SDS011;51970;53.484;49.488;2023-01-30T16:22:56;48.65;;;21.42;;
65368;SDS011;51970;53.484;49.488;2023-01-30T16:25:26;46.30;;;20.63;;
65368;SDS011;51970;53.484;49.488;2023-01-30T16:27:58;47.83;;;19.05;;
65368;SDS011;51970;53.484;49.488;2023-01-30T16:30:25;42.65;;;19.65;;
65368;SDS011;51970;53.484;49.488;2023-01-30T16:32:54;48.55;;;19.67;;
65368;SDS011;51970;53.484;49.488;2023-01-30T16:37:50;26.58;;;11.13;;
65368;SDS011;51970;53.484;49.488;2023-01-30T16:40:25;43.42;;;20.23;;
65368;SDS011;51970;53.484;49.488;2023-01-30T16:43:01;51.65;;;19.45;;
65368;SDS011;51970;53.484;49.488;2023-01-30T16:50:48;83.88;;;25.60;;
65368;SDS011;51970;53.484;49.488;2023-01-30T16:53:24;41.75;;;17.33;;
65368;SDS011;51970;53.484;49.488;2023-01-30T16:56:14;47.78;;;22.55;;
65368;SDS011;51970;53.484;49.488;2023-01-30T16:58:46;43.05;;;19.42;;
65368;SDS011;51970;53.484;49.488;2023-01-30T17:01:17;49.25;;;20.42;;
65368;SDS011;51970;53.484;49.488;2023-01-30T17:03:48;57.65;;;26.15;;
65368;SDS011;51970;53.484;49.488;2023-01-30T17:06:24;37.53;;;20.75;;
65368;SDS011;51970;53.484;49.488;2023-01-30T17:08:56;38.15;;;16.42;;
65368;SDS011;51970;53.484;49.488;2023-01-30T17:11:36;59.00;;;24.27;;
65368;SDS011;51970;53.484;49.488;2023-01-30T17:16:42;52.00;;;20.27;;
65368;SDS011;51970;53.484;49.488;2023-01-30T17:19:10;47.72;;;20.92;;
65368;SDS011;51970;53.484;49.488;2023-01-30T17:22:13;49.55;;;20.02;;
65368;SDS011;51970;53.484;49.488;2023-01-30T17:24:31;50.15;;;24.05;;
65368;SDS011;51970;53.484;49.488;2023-01-30T17:27:03;52.50;;;23.42;;
65368;SDS011;51970;53.484;49.488;2023-01-30T17:29:30;50.13;;;22.48;;
65368;SDS011;51970;53.484;49.488;2023-01-30T17:31:57;44.15;;;19.90;;
65368;SDS011;51970;53.484;49.488;2023-01-30T17:34:24;52.10;;;20.77;;
65368;SDS011;51970;53.484;49.488;2023-01-30T17:36:51;50.67;;;23.77;;
65368;SDS011;51970;53.484;49.488;2023-01-30T17:39:20;57.88;;;24.83;;
65368;SDS011;51970;53.484;49.488;2023-01-30T17:41:50;52.22;;;24.38;;
65368;SDS011;51970;53.484;49.488;2023-01-30T17:44:16;35.22;;;18.30;;
65368;SDS011;51970;53.484;49.488;2023-01-30T17:46:46;47.90;;;24.52;;
65368;SDS011;51970;53.484;49.488;2023-01-30T17:49:20;58.58;;;23.58;;
65368;SDS011;51970;53.484;49.488;2023-01-30T17:51:48;49.30;;;20.95;;
65368;SDS011;51970;53.484;49.488;2023-01-30T17:54:15;51.38;;;24.10;;
65368;SDS011;51970;53.484;49.488;2023-01-30T17:56:42;55.38;;;23.10;;
65368;SDS011;51970;53.484;49.488;2023-01-30T17:59:11;52.78;;;21.75;;
65368;SDS011;51970;53.484;49.488;2023-01-30T18:01:40;48.65;;;21.33;;
65368;SDS011;51970;53.484;49.488;2023-01-30T18:04:09;42.50;;;20.15;;
65368;SDS011;51970;53.484;49.488;2023-01-30T18:06:36;48.22;;;19.35;;
65368;SDS011;51970;53.484;49.488;2023-01-30T18:09:04;46.85;;;21.05;;
65368;SDS011;51970;53.484;49.488;2023-01-30T18:11:33;31.13;;;13.10;;
65368;SDS011;51970;53.484;49.488;2023-01-30T18:13:59;46.70;;;19.65;;
65368;SDS011;51970;53.484;49.488;2023-01-30T18:16:29;42.30;;;19.17;;